createdAt,value
2022-10-23T00:05:22.112Z,96.96
2022-10-23T00:10:54.230Z,98.04
2022-10-23T00:16:25.647Z,98.0
2022-10-23T00:21:57.445Z,97.58
2022-10-23T00:27:29.112Z,97.24
2022-10-23T00:33:07.380Z,98.21
2022-10-23T00:38:38.865Z,97.86
2022-10-23T00:44:10.841Z,98.79
2022-10-23T00:49:43.257Z,98.49
2022-10-23T00:55:14.103Z,99.81
2022-10-23T01:00:45.832Z,99.98
2022-10-23T01:06:27.913Z,99.48
2022-10-23T01:11:49.521Z,99.59
2022-10-23T01:17:22.086Z,99.5
2022-10-23T01:22:53.418Z,99.66
2022-10-23T01:28:25.119Z,99.64
2022-10-23T01:34:03.182Z,99.2
2022-10-23T01:39:34.923Z,98.62
2022-10-23T01:45:06.646Z,99.09
2022-10-23T01:50:38.363Z,98.42
2022-10-23T01:56:10.158Z,98.12
2022-10-23T02:01:42.280Z,98.32
2022-10-23T02:07:13.542Z,98.48
2022-10-23T02:12:45.306Z,98.46
2022-10-23T02:18:17.265Z,98.05
2022-10-23T02:23:52.589Z,98.2
2022-10-23T02:29:20.457Z,97.99
2022-10-23T02:34:56.514Z,98.99
2022-10-23T02:40:28.217Z,98.99
2022-10-23T02:45:59.969Z,98.75
2022-10-23T02:51:31.789Z,99.03
2022-10-23T02:57:03.482Z,99.27
2022-10-23T03:02:35.169Z,98.99
2022-10-23T03:08:06.994Z,98.8
2022-10-23T03:13:38.581Z,98.72
2022-10-23T03:19:12.907Z,98.66
2022-10-23T03:24:42.094Z,98.86
2022-10-23T03:30:13.751Z,99.24
2022-10-23T03:35:50.103Z,99.4
2022-10-23T03:41:21.596Z,99.16
2022-10-23T03:46:53.423Z,98.33
2022-10-23T03:57:56.774Z,97.95
2022-10-23T04:03:28.482Z,98.12
2022-10-23T04:09:00.249Z,97.76
2022-10-23T04:14:31.942Z,97.93
2022-10-23T04:20:03.674Z,98.33
2022-10-23T04:25:35.515Z,99.11
2022-10-23T04:31:07.154Z,98.88
2022-10-23T04:36:43.163Z,99.49
2022-10-23T04:42:15.107Z,99.11
2022-10-23T04:47:46.688Z,99.29
2022-10-23T04:53:18.406Z,99.76
2022-10-23T04:58:50.145Z,99.65
2022-10-23T05:04:22.293Z,100.0
2022-10-23T05:09:53.586Z,100.0
2022-10-23T05:15:25.279Z,100.0
2022-10-23T05:20:56.965Z,100.0
2022-10-23T05:26:28.773Z,99.55
2022-10-23T05:32:00.578Z,100.0
2022-10-23T05:37:36.586Z,100.0
2022-10-23T05:43:08.341Z,99.97
2022-10-23T05:48:40.104Z,100.0
2022-10-23T05:54:11.734Z,100.0
2022-10-23T05:59:43.466Z,100.0
2022-10-23T06:05:15.185Z,99.46
2022-10-23T06:10:46.972Z,100.0
2022-10-23T06:16:18.657Z,99.91
2022-10-23T06:21:50.370Z,99.52
2022-10-23T06:27:22.154Z,99.13
2022-10-23T06:32:53.771Z,99.67
2022-10-23T06:38:29.899Z,99.5
2022-10-23T06:44:01.681Z,99.41
2022-10-23T06:49:33.481Z,99.46
2022-10-23T06:55:05.356Z,98.96
2022-10-23T07:00:36.930Z,99.71
2022-10-23T07:06:08.609Z,98.87
2022-10-23T07:11:40.221Z,98.82
2022-10-23T07:17:12.009Z,98.67
2022-10-23T07:22:45.105Z,98.67
2022-10-23T07:28:15.486Z,98.77
2022-10-23T07:33:47.176Z,97.89
2022-10-23T07:39:23.293Z,96.8
2022-10-23T07:44:55.044Z,96.5
2022-10-23T07:50:26.744Z,97.4
2022-10-23T07:55:58.490Z,97.15
2022-10-23T08:01:30.397Z,95.0
2022-10-23T08:07:01.931Z,96.06
2022-10-23T08:12:33.682Z,95.16
2022-10-23T08:18:05.812Z,94.47
2022-10-23T08:23:37.397Z,94.28
2022-10-23T08:29:08.778Z,93.44
2022-10-23T08:34:40.616Z,92.98
2022-10-23T08:40:16.661Z,93.02
2022-10-23T08:45:48.394Z,93.33
2022-10-23T08:51:20.054Z,92.09
2022-10-23T08:56:51.846Z,92.22
2022-10-23T09:02:23.765Z,92.93
2022-10-23T09:07:55.262Z,92.13
2022-10-23T09:13:27.007Z,89.45
2022-10-23T09:18:58.774Z,88.9
2022-10-23T09:24:30.602Z,88.69
2022-10-23T09:30:02.619Z,88.41
2022-10-23T09:35:34.106Z,87.19
2022-10-23T09:41:10.136Z,85.78
2022-10-23T09:46:41.962Z,84.55
2022-10-23T09:52:15.541Z,84.85
2022-10-23T09:57:48.045Z,83.22
2022-10-23T10:03:19.048Z,82.49
2022-10-23T10:08:50.773Z,82.51
2022-10-23T10:14:22.497Z,82.38
2022-10-23T10:19:54.290Z,81.98
2022-10-23T10:25:25.982Z,81.46
2022-10-23T10:30:57.702Z,81.18
2022-10-23T10:36:29.415Z,80.45
2022-10-23T10:42:07.510Z,79.71
2022-10-23T10:47:39.165Z,79.58
2022-10-23T10:53:10.878Z,80.26
2022-10-23T10:58:42.654Z,80.19
2022-10-23T11:04:14.365Z,83.04
2022-10-23T11:09:46.145Z,80.95
2022-10-23T11:15:17.913Z,83.38
2022-10-23T11:20:49.590Z,81.83
2022-10-23T11:26:21.441Z,81.52
2022-10-23T11:31:52.973Z,81.25
2022-10-23T11:37:24.801Z,83.95
2022-10-23T11:43:00.717Z,81.45
2022-10-23T11:48:32.590Z,82.42
2022-10-23T11:54:04.330Z,82.23
2022-10-23T11:59:36.074Z,83.49
2022-10-23T12:05:07.810Z,82.92
2022-10-23T12:10:39.530Z,82.58
2022-10-23T12:16:11.183Z,81.11
2022-10-23T12:21:42.942Z,82.68
2022-10-23T12:27:14.694Z,82.29
2022-10-23T12:32:46.861Z,83.79
2022-10-23T12:38:18.093Z,82.33
2022-10-23T12:43:54.242Z,81.88
2022-10-23T12:49:25.965Z,78.68
2022-10-23T12:54:58.123Z,76.81
2022-10-23T13:00:29.695Z,75.95
2022-10-23T13:06:01.210Z,75.04
2022-10-23T13:11:32.878Z,75.95
2022-10-23T13:17:04.612Z,76.5
2022-10-23T13:22:36.310Z,77.83
2022-10-23T13:28:08.057Z,76.07
2022-10-23T13:33:39.813Z,78.32
2022-10-23T13:39:11.557Z,78.65
2022-10-23T13:44:49.635Z,79.32
2022-10-23T13:50:21.349Z,81.12
2022-10-23T13:55:58.736Z,81.98
2022-10-23T14:01:25.171Z,82.21
2022-10-23T14:06:57.189Z,82.15
2022-10-23T14:12:28.582Z,81.46
2022-10-23T14:18:05.976Z,82.27
2022-10-23T14:23:32.240Z,83.09
2022-10-23T14:29:16.308Z,84.15
2022-10-23T14:34:35.673Z,82.59
2022-10-23T14:40:07.362Z,82.45
2022-10-23T14:45:43.751Z,82.32
2022-10-23T14:51:15.774Z,82.69
2022-10-23T14:56:47.130Z,82.87
2022-10-23T15:02:19.073Z,82.44
2022-10-23T15:07:50.602Z,82.18
2022-10-23T15:13:22.562Z,81.86
2022-10-23T15:18:54.710Z,81.8
2022-10-23T15:24:26.050Z,81.81
2022-10-23T15:29:57.654Z,81.65
2022-10-23T15:35:29.423Z,81.46
2022-10-23T15:41:01.121Z,81.84
2022-10-23T15:46:39.398Z,82.16
2022-10-23T15:52:11.359Z,82.61
2022-10-23T15:57:43.121Z,82.73
2022-10-23T16:03:15.583Z,83.77
2022-10-23T16:08:47.115Z,85.09
2022-10-23T16:14:19.593Z,87.12
2022-10-23T16:19:51.351Z,88.76
2022-10-23T16:25:23.232Z,87.57
2022-10-23T16:30:54.994Z,87.76
2022-10-23T16:36:26.728Z,87.34
2022-10-23T16:41:58.703Z,87.94
2022-10-23T16:47:34.809Z,86.54
2022-10-23T16:53:06.545Z,85.85
2022-10-23T16:58:38.270Z,85.82
2022-10-23T17:04:09.924Z,86.12
2022-10-23T17:09:41.694Z,86.27
2022-10-23T17:15:13.513Z,85.99
2022-10-23T17:20:45.191Z,85.49
2022-10-23T17:26:16.838Z,85.46
2022-10-23T17:31:48.615Z,86.3
2022-10-23T17:37:20.606Z,84.41
2022-10-23T17:42:52.134Z,84.99
2022-10-23T17:48:30.255Z,84.63
2022-10-23T17:54:02.012Z,81.83
2022-10-23T17:59:33.615Z,80.43
2022-10-23T18:05:05.408Z,80.06
2022-10-23T18:10:37.109Z,78.17
2022-10-23T18:16:08.859Z,78.66
2022-10-23T18:21:40.874Z,79.87
2022-10-23T18:27:12.384Z,82.33
2022-10-23T18:32:44.608Z,85.28
2022-10-23T18:38:15.659Z,86.93
2022-10-23T18:43:47.495Z,84.33
2022-10-23T18:49:23.660Z,83.59
2022-10-23T18:54:55.351Z,84.18
2022-10-23T19:00:27.125Z,85.92
2022-10-23T19:05:58.826Z,86.37
2022-10-23T19:11:30.566Z,87.61
2022-10-23T19:17:02.381Z,87.13
2022-10-23T19:22:34.079Z,87.23
2022-10-23T19:28:05.782Z,88.49
2022-10-23T19:33:37.499Z,88.0
2022-10-23T19:39:09.244Z,87.21
2022-10-23T19:44:41.023Z,86.56
2022-10-23T19:50:19.209Z,86.03
2022-10-23T19:55:50.764Z,85.39
2022-10-23T20:01:22.742Z,84.61
2022-10-23T20:06:54.519Z,85.32
2022-10-23T20:12:26.027Z,84.55
2022-10-23T20:17:57.764Z,83.47
2022-10-23T20:23:29.541Z,82.42
2022-10-23T20:29:01.393Z,82.48
2022-10-23T20:34:32.983Z,81.76
2022-10-23T20:40:04.878Z,81.49
2022-10-23T20:45:36.438Z,81.03
2022-10-23T20:51:12.480Z,78.87
2022-10-23T20:56:44.214Z,79.02
2022-10-23T21:02:16.245Z,77.69
2022-10-23T21:07:47.718Z,77.19
2022-10-23T21:13:20.257Z,76.96
2022-10-23T21:18:51.946Z,76.72
2022-10-23T21:24:23.665Z,77.27
2022-10-23T21:29:55.389Z,77.41
2022-10-23T21:35:30.326Z,76.85
2022-10-23T21:40:58.815Z,76.46
2022-10-23T21:46:30.601Z,77.38
2022-10-23T21:52:06.670Z,75.93
2022-10-23T21:57:38.449Z,76.04
2022-10-23T22:03:10.054Z,76.64
2022-10-23T22:08:42.383Z,74.68
2022-10-23T22:14:13.577Z,75.03
2022-10-23T22:19:45.293Z,74.91
2022-10-23T22:25:17.058Z,75.07
2022-10-23T22:30:48.781Z,74.94
2022-10-23T22:36:20.550Z,74.96
2022-10-23T22:41:52.222Z,75.46
2022-10-23T22:47:23.958Z,75.63
2022-10-23T22:52:59.927Z,75.72
2022-10-23T22:58:31.700Z,75.38
2022-10-23T23:04:37.083Z,75.64
2022-10-23T23:09:35.207Z,75.85
2022-10-23T23:15:07.274Z,76.52
2022-10-23T23:20:38.667Z,76.46
2022-10-23T23:26:10.407Z,77.08
2022-10-23T23:31:42.178Z,77.23
2022-10-23T23:37:13.787Z,76.87
2022-10-23T23:42:46.265Z,76.67
2022-10-23T23:48:17.330Z,76.9
2022-10-23T23:53:53.443Z,76.92
2022-10-23T23:59:25.114Z,77.15
